Terminal Aerodrome Forecast
Issued by NWS Wilmington, OH

Current Version | Previous Version | Graphics & Text | Print | Product List | Glossary On
Versions: 1 2 3 4 5 6 7 8 9 10 11 12 13 14
000
FTUS41 KILN 220533
TAFILN
TAF
KILN 220533Z 2206/2306 36014G22KT P6SM SKC
     FM221300 04012G20KT P6SM SKC
     FM221800 04010KT P6SM SKC
     FM230000 05006KT P6SM FEW250=

USA.gov is the U.S. government's official web portal to all federal, state and local government web resources and services.